sensor_id;sensor_type;location;lat;lon;timestamp;temperature;humidity
26990;DHT22;14537;47.788;11.858;2024-03-06T00:01:36;2.70;99.90
26990;DHT22;14537;47.788;11.858;2024-03-06T00:04:03;2.60;99.90
26990;DHT22;14537;47.788;11.858;2024-03-06T00:06:29;2.70;99.90
26990;DHT22;14537;47.788;11.858;2024-03-06T00:08:56;2.60;99.90
26990;DHT22;14537;47.788;11.858;2024-03-06T00:11:21;2.40;99.90
26990;DHT22;14537;47.788;11.858;2024-03-06T00:13:47;2.50;99.90
26990;DHT22;14537;47.788;11.858;2024-03-06T00:16:13;2.40;99.90
26990;DHT22;14537;47.788;11.858;2024-03-06T00:18:39;2.30;99.90
26990;DHT22;14537;47.788;11.858;2024-03-06T00:21:05;2.30;99.90
26990;DHT22;14537;47.788;11.858;2024-03-06T00:23:32;2.20;99.90
26990;DHT22;14537;47.788;11.858;2024-03-06T00:25:57;2.20;99.90
26990;DHT22;14537;47.788;11.858;2024-03-06T00:28:23;2.20;99.90
26990;DHT22;14537;47.788;11.858;2024-03-06T00:30:49;2.20;99.90
26990;DHT22;14537;47.788;11.858;2024-03-06T00:33:15;2.20;99.90
26990;DHT22;14537;47.788;11.858;2024-03-06T00:35:40;2.10;99.90
26990;DHT22;14537;47.788;11.858;2024-03-06T00:38:06;2.20;99.90
26990;DHT22;14537;47.788;11.858;2024-03-06T00:40:32;2.20;99.90
26990;DHT22;14537;47.788;11.858;2024-03-06T00:42:58;2.10;99.90
26990;DHT22;14537;47.788;11.858;2024-03-06T00:45:24;2.10;99.90
26990;DHT22;14537;47.788;11.858;2024-03-06T00:47:50;2.20;99.90
26990;DHT22;14537;47.788;11.858;2024-03-06T00:50:15;2.20;99.90
26990;DHT22;14537;47.788;11.858;2024-03-06T00:52:43;2.30;99.90
26990;DHT22;14537;47.788;11.858;2024-03-06T00:55:09;2.30;99.90
26990;DHT22;14537;47.788;11.858;2024-03-06T00:57:35;2.20;99.90
26990;DHT22;14537;47.788;11.858;2024-03-06T01:00:04;2.20;99.90
26990;DHT22;14537;47.788;11.858;2024-03-06T01:02:39;2.10;99.90
26990;DHT22;14537;47.788;11.858;2024-03-06T01:05:05;2.10;99.90
26990;DHT22;14537;47.788;11.858;2024-03-06T01:07:32;2.00;99.90
26990;DHT22;14537;47.788;11.858;2024-03-06T01:09:58;2.00;99.90
26990;DHT22;14537;47.788;11.858;2024-03-06T01:12:24;2.00;99.90
26990;DHT22;14537;47.788;11.858;2024-03-06T01:14:50;2.00;99.90
26990;DHT22;14537;47.788;11.858;2024-03-06T01:17:15;1.90;99.90
26990;DHT22;14537;47.788;11.858;2024-03-06T01:19:41;1.90;99.90
26990;DHT22;14537;47.788;11.858;2024-03-06T01:22:12;1.90;99.90
26990;DHT22;14537;47.788;11.858;2024-03-06T01:24:40;1.80;99.90
26990;DHT22;14537;47.788;11.858;2024-03-06T01:27:06;1.70;99.90
26990;DHT22;14537;47.788;11.858;2024-03-06T01:29:32;1.80;99.90
26990;DHT22;14537;47.788;11.858;2024-03-06T01:31:58;1.80;99.90
26990;DHT22;14537;47.788;11.858;2024-03-06T01:34:24;1.70;99.90
26990;DHT22;14537;47.788;11.858;2024-03-06T01:36:50;1.70;99.90
26990;DHT22;14537;47.788;11.858;2024-03-06T01:39:16;1.70;99.90
26990;DHT22;14537;47.788;11.858;2024-03-06T01:41:46;1.70;99.90
26990;DHT22;14537;47.788;11.858;2024-03-06T01:44:12;1.60;99.90
26990;DHT22;14537;47.788;11.858;2024-03-06T01:46:38;1.60;99.90
26990;DHT22;14537;47.788;11.858;2024-03-06T01:49:04;1.70;99.90
26990;DHT22;14537;47.788;11.858;2024-03-06T01:51:30;1.60;99.90
26990;DHT22;14537;47.788;11.858;2024-03-06T01:53:57;1.70;99.90
26990;DHT22;14537;47.788;11.858;2024-03-06T01:56:23;1.80;99.90
26990;DHT22;14537;47.788;11.858;2024-03-06T01:58:49;1.80;99.90
26990;DHT22;14537;47.788;11.858;2024-03-06T02:01:16;1.80;99.90
26990;DHT22;14537;47.788;11.858;2024-03-06T02:03:42;1.80;99.90
26990;DHT22;14537;47.788;11.858;2024-03-06T02:06:10;1.90;99.90
26990;DHT22;14537;47.788;11.858;2024-03-06T02:08:36;1.90;99.90
26990;DHT22;14537;47.788;11.858;2024-03-06T02:11:02;1.80;99.90
26990;DHT22;14537;47.788;11.858;2024-03-06T02:13:29;1.80;99.90
26990;DHT22;14537;47.788;11.858;2024-03-06T02:15:55;1.80;99.90
26990;DHT22;14537;47.788;11.858;2024-03-06T02:18:20;1.90;99.90
26990;DHT22;14537;47.788;11.858;2024-03-06T02:20:46;1.90;99.90
26990;DHT22;14537;47.788;11.858;2024-03-06T02:23:12;1.90;99.90
26990;DHT22;14537;47.788;11.858;2024-03-06T02:25:43;2.00;99.90
26990;DHT22;14537;47.788;11.858;2024-03-06T02:28:08;2.00;99.90
26990;DHT22;14537;47.788;11.858;2024-03-06T02:30:34;2.00;99.90
26990;DHT22;14537;47.788;11.858;2024-03-06T02:33:02;1.90;99.90
26990;DHT22;14537;47.788;11.858;2024-03-06T02:35:29;1.80;99.90
26990;DHT22;14537;47.788;11.858;2024-03-06T02:37:55;1.70;99.90
26990;DHT22;14537;47.788;11.858;2024-03-06T02:40:22;1.70;99.90
26990;DHT22;14537;47.788;11.858;2024-03-06T02:42:48;1.80;99.90
26990;DHT22;14537;47.788;11.858;2024-03-06T02:45:13;1.70;99.90
26990;DHT22;14537;47.788;11.858;2024-03-06T02:47:39;1.60;99.90
26990;DHT22;14537;47.788;11.858;2024-03-06T02:50:05;1.40;99.90
26990;DHT22;14537;47.788;11.858;2024-03-06T02:52:31;1.40;99.90
26990;DHT22;14537;47.788;11.858;2024-03-06T02:54:56;1.40;99.90
26990;DHT22;14537;47.788;11.858;2024-03-06T02:57:22;1.40;99.90
26990;DHT22;14537;47.788;11.858;2024-03-06T02:59:48;1.40;99.90
26990;DHT22;14537;47.788;11.858;2024-03-06T03:02:14;1.40;99.90
26990;DHT22;14537;47.788;11.858;2024-03-06T03:04:39;1.40;99.90
26990;DHT22;14537;47.788;11.858;2024-03-06T03:07:05;1.30;99.90
26990;DHT22;14537;47.788;11.858;2024-03-06T03:09:31;1.40;99.90
26990;DHT22;14537;47.788;11.858;2024-03-06T03:11:56;1.40;99.90
26990;DHT22;14537;47.788;11.858;2024-03-06T03:14:22;1.40;99.90
26990;DHT22;14537;47.788;11.858;2024-03-06T03:16:48;1.40;99.90
26990;DHT22;14537;47.788;11.858;2024-03-06T03:19:13;1.40;99.90
26990;DHT22;14537;47.788;11.858;2024-03-06T03:21:43;1.30;99.90
26990;DHT22;14537;47.788;11.858;2024-03-06T03:24:09;1.40;99.90
26990;DHT22;14537;47.788;11.858;2024-03-06T03:26:35;1.40;99.90
26990;DHT22;14537;47.788;11.858;2024-03-06T03:29:02;1.30;99.90
26990;DHT22;14537;47.788;11.858;2024-03-06T03:31:28;1.30;99.90
26990;DHT22;14537;47.788;11.858;2024-03-06T03:33:54;1.30;99.90
26990;DHT22;14537;47.788;11.858;2024-03-06T03:36:19;1.30;99.90
26990;DHT22;14537;47.788;11.858;2024-03-06T03:38:45;1.20;99.90
26990;DHT22;14537;47.788;11.858;2024-03-06T03:41:11;1.20;99.90
26990;DHT22;14537;47.788;11.858;2024-03-06T03:43:42;1.30;99.90
26990;DHT22;14537;47.788;11.858;2024-03-06T03:46:08;1.30;99.90
26990;DHT22;14537;47.788;11.858;2024-03-06T03:48:34;1.30;99.90
26990;DHT22;14537;47.788;11.858;2024-03-06T03:51:01;1.30;99.90
26990;DHT22;14537;47.788;11.858;2024-03-06T03:53:28;1.30;99.90
26990;DHT22;14537;47.788;11.858;2024-03-06T03:55:54;1.30;99.90
26990;DHT22;14537;47.788;11.858;2024-03-06T03:58:20;1.30;99.90
26990;DHT22;14537;47.788;11.858;2024-03-06T04:00:45;1.30;99.90
26990;DHT22;14537;47.788;11.858;2024-03-06T04:03:11;1.30;99.90
26990;DHT22;14537;47.788;11.858;2024-03-06T04:05:36;1.40;99.90
26990;DHT22;14537;47.788;11.858;2024-03-06T04:08:02;1.40;99.90
26990;DHT22;14537;47.788;11.858;2024-03-06T04:10:28;1.40;99.90
26990;DHT22;14537;47.788;11.858;2024-03-06T04:12:53;1.40;99.90
26990;DHT22;14537;47.788;11.858;2024-03-06T04:15:20;1.30;99.90
26990;DHT22;14537;47.788;11.858;2024-03-06T04:17:45;1.30;99.90
26990;DHT22;14537;47.788;11.858;2024-03-06T04:20:11;1.30;99.90
26990;DHT22;14537;47.788;11.858;2024-03-06T04:22:38;1.30;99.90
26990;DHT22;14537;47.788;11.858;2024-03-06T04:25:04;1.30;99.90
26990;DHT22;14537;47.788;11.858;2024-03-06T04:27:30;1.40;99.90
26990;DHT22;14537;47.788;11.858;2024-03-06T04:29:56;1.40;99.90
26990;DHT22;14537;47.788;11.858;2024-03-06T04:32:21;1.40;99.90
26990;DHT22;14537;47.788;11.858;2024-03-06T04:34:47;1.30;99.90
26990;DHT22;14537;47.788;11.858;2024-03-06T04:37:13;1.30;99.90
26990;DHT22;14537;47.788;11.858;2024-03-06T04:39:38;1.30;99.90
26990;DHT22;14537;47.788;11.858;2024-03-06T04:42:04;1.30;99.90
26990;DHT22;14537;47.788;11.858;2024-03-06T04:44:33;1.30;99.90
26990;DHT22;14537;47.788;11.858;2024-03-06T04:46:59;1.30;99.90
26990;DHT22;14537;47.788;11.858;2024-03-06T04:49:25;1.30;99.90
26990;DHT22;14537;47.788;11.858;2024-03-06T04:51:50;1.30;99.90
26990;DHT22;14537;47.788;11.858;2024-03-06T04:54:16;1.30;99.90
26990;DHT22;14537;47.788;11.858;2024-03-06T04:56:41;1.30;99.90
26990;DHT22;14537;47.788;11.858;2024-03-06T04:59:07;1.40;99.90
26990;DHT22;14537;47.788;11.858;2024-03-06T05:01:33;1.50;99.90
26990;DHT22;14537;47.788;11.858;2024-03-06T05:03:58;1.40;99.90
26990;DHT22;14537;47.788;11.858;2024-03-06T05:06:24;1.40;99.90
26990;DHT22;14537;47.788;11.858;2024-03-06T05:08:50;1.40;99.90
26990;DHT22;14537;47.788;11.858;2024-03-06T05:11:15;1.40;99.90
26990;DHT22;14537;47.788;11.858;2024-03-06T05:13:41;1.40;99.90
26990;DHT22;14537;47.788;11.858;2024-03-06T05:16:06;1.30;99.90
26990;DHT22;14537;47.788;11.858;2024-03-06T05:18:34;1.30;99.90
26990;DHT22;14537;47.788;11.858;2024-03-06T05:21:00;1.40;99.90
26990;DHT22;14537;47.788;11.858;2024-03-06T05:23:26;1.30;99.90
26990;DHT22;14537;47.788;11.858;2024-03-06T05:25:52;1.30;99.90
26990;DHT22;14537;47.788;11.858;2024-03-06T05:28:17;1.40;99.90
26990;DHT22;14537;47.788;11.858;2024-03-06T05:30:43;1.40;99.90
26990;DHT22;14537;47.788;11.858;2024-03-06T05:33:09;1.40;99.90
26990;DHT22;14537;47.788;11.858;2024-03-06T05:35:34;1.50;99.90
26990;DHT22;14537;47.788;11.858;2024-03-06T05:38:00;1.50;99.90
26990;DHT22;14537;47.788;11.858;2024-03-06T05:40:25;1.40;99.90
26990;DHT22;14537;47.788;11.858;2024-03-06T05:42:51;1.40;99.90
26990;DHT22;14537;47.788;11.858;2024-03-06T05:45:17;1.50;99.90
26990;DHT22;14537;47.788;11.858;2024-03-06T05:47:43;1.50;99.90
26990;DHT22;14537;47.788;11.858;2024-03-06T05:50:09;1.50;99.90
26990;DHT22;14537;47.788;11.858;2024-03-06T05:52:36;1.60;99.90
26990;DHT22;14537;47.788;11.858;2024-03-06T05:55:03;1.50;99.90
26990;DHT22;14537;47.788;11.858;2024-03-06T05:57:31;1.50;99.90
26990;DHT22;14537;47.788;11.858;2024-03-06T05:59:57;1.50;99.90
26990;DHT22;14537;47.788;11.858;2024-03-06T06:02:23;1.50;99.90
26990;DHT22;14537;47.788;11.858;2024-03-06T06:04:48;1.50;99.90
26990;DHT22;14537;47.788;11.858;2024-03-06T06:07:14;1.50;99.90
26990;DHT22;14537;47.788;11.858;2024-03-06T06:09:41;1.50;99.90
26990;DHT22;14537;47.788;11.858;2024-03-06T06:12:06;1.50;99.90
26990;DHT22;14537;47.788;11.858;2024-03-06T06:14:32;1.40;99.90
26990;DHT22;14537;47.788;11.858;2024-03-06T06:16:57;1.40;99.90
26990;DHT22;14537;47.788;11.858;2024-03-06T06:19:23;1.50;99.90
26990;DHT22;14537;47.788;11.858;2024-03-06T06:21:49;1.50;99.90
26990;DHT22;14537;47.788;11.858;2024-03-06T06:24:14;1.50;99.90
26990;DHT22;14537;47.788;11.858;2024-03-06T06:26:40;1.50;99.90
26990;DHT22;14537;47.788;11.858;2024-03-06T06:29:05;1.50;99.90
26990;DHT22;14537;47.788;11.858;2024-03-06T06:31:31;1.50;99.90
26990;DHT22;14537;47.788;11.858;2024-03-06T06:33:57;1.50;99.90
26990;DHT22;14537;47.788;11.858;2024-03-06T06:36:23;1.50;99.90
26990;DHT22;14537;47.788;11.858;2024-03-06T06:38:49;1.40;99.90
26990;DHT22;14537;47.788;11.858;2024-03-06T06:41:15;1.60;99.90
26990;DHT22;14537;47.788;11.858;2024-03-06T06:43:41;1.50;99.90
26990;DHT22;14537;47.788;11.858;2024-03-06T06:46:07;1.50;99.90
26990;DHT22;14537;47.788;11.858;2024-03-06T06:48:33;1.50;99.90
26990;DHT22;14537;47.788;11.858;2024-03-06T06:51:02;1.50;99.90
26990;DHT22;14537;47.788;11.858;2024-03-06T06:53:31;1.50;99.90
26990;DHT22;14537;47.788;11.858;2024-03-06T06:55:57;1.50;99.90
26990;DHT22;14537;47.788;11.858;2024-03-06T06:58:23;1.60;99.90
26990;DHT22;14537;47.788;11.858;2024-03-06T07:00:49;1.60;99.90
26990;DHT22;14537;47.788;11.858;2024-03-06T07:03:15;1.60;99.90
26990;DHT22;14537;47.788;11.858;2024-03-06T07:05:40;1.60;99.90
26990;DHT22;14537;47.788;11.858;2024-03-06T07:08:08;1.60;99.90
26990;DHT22;14537;47.788;11.858;2024-03-06T07:10:34;1.60;99.90
26990;DHT22;14537;47.788;11.858;2024-03-06T07:13:03;1.60;99.90
26990;DHT22;14537;47.788;11.858;2024-03-06T07:15:29;1.70;99.90
26990;DHT22;14537;47.788;11.858;2024-03-06T07:17:55;1.60;99.90
26990;DHT22;14537;47.788;11.858;2024-03-06T07:20:20;1.60;99.90
26990;DHT22;14537;47.788;11.858;2024-03-06T07:22:46;1.60;99.90
26990;DHT22;14537;47.788;11.858;2024-03-06T07:25:12;1.70;99.90
26990;DHT22;14537;47.788;11.858;2024-03-06T07:27:37;1.70;99.90
26990;DHT22;14537;47.788;11.858;2024-03-06T07:30:03;1.70;99.90
26990;DHT22;14537;47.788;11.858;2024-03-06T07:32:29;1.70;99.90
26990;DHT22;14537;47.788;11.858;2024-03-06T07:34:55;1.70;99.90
26990;DHT22;14537;47.788;11.858;2024-03-06T07:37:20;1.70;99.90
26990;DHT22;14537;47.788;11.858;2024-03-06T07:39:46;1.70;99.90
26990;DHT22;14537;47.788;11.858;2024-03-06T07:42:12;1.70;99.90
26990;DHT22;14537;47.788;11.858;2024-03-06T07:44:38;1.70;99.90
26990;DHT22;14537;47.788;11.858;2024-03-06T07:47:03;1.70;99.90
26990;DHT22;14537;47.788;11.858;2024-03-06T07:49:29;1.80;99.90
26990;DHT22;14537;47.788;11.858;2024-03-06T07:51:56;1.90;99.90
26990;DHT22;14537;47.788;11.858;2024-03-06T07:54:22;1.80;99.90
26990;DHT22;14537;47.788;11.858;2024-03-06T07:56:48;1.80;99.90
26990;DHT22;14537;47.788;11.858;2024-03-06T07:59:13;1.90;99.90
26990;DHT22;14537;47.788;11.858;2024-03-06T08:01:40;1.90;99.90
26990;DHT22;14537;47.788;11.858;2024-03-06T08:04:06;1.80;99.90
26990;DHT22;14537;47.788;11.858;2024-03-06T08:06:32;1.80;99.90
26990;DHT22;14537;47.788;11.858;2024-03-06T08:08:59;1.80;99.90
26990;DHT22;14537;47.788;11.858;2024-03-06T08:11:25;1.90;99.90
26990;DHT22;14537;47.788;11.858;2024-03-06T08:13:56;1.90;99.90
26990;DHT22;14537;47.788;11.858;2024-03-06T08:16:22;1.90;99.90
26990;DHT22;14537;47.788;11.858;2024-03-06T08:18:47;1.90;99.90
26990;DHT22;14537;47.788;11.858;2024-03-06T08:21:13;1.90;99.90
26990;DHT22;14537;47.788;11.858;2024-03-06T08:23:38;1.90;99.90
26990;DHT22;14537;47.788;11.858;2024-03-06T08:26:04;1.90;99.90
26990;DHT22;14537;47.788;11.858;2024-03-06T08:28:29;1.90;99.90
26990;DHT22;14537;47.788;11.858;2024-03-06T08:30:56;1.90;99.90
26990;DHT22;14537;47.788;11.858;2024-03-06T08:33:22;2.00;99.90
26990;DHT22;14537;47.788;11.858;2024-03-06T08:35:48;2.10;99.90
26990;DHT22;14537;47.788;11.858;2024-03-06T08:38:13;2.10;99.90
26990;DHT22;14537;47.788;11.858;2024-03-06T08:40:39;2.10;99.90
26990;DHT22;14537;47.788;11.858;2024-03-06T08:43:07;2.20;99.90
26990;DHT22;14537;47.788;11.858;2024-03-06T08:45:34;2.20;99.90
26990;DHT22;14537;47.788;11.858;2024-03-06T08:48:00;2.20;99.90
26990;DHT22;14537;47.788;11.858;2024-03-06T08:50:25;2.10;99.90
26990;DHT22;14537;47.788;11.858;2024-03-06T08:52:51;2.10;99.90
26990;DHT22;14537;47.788;11.858;2024-03-06T08:55:17;2.20;99.90
26990;DHT22;14537;47.788;11.858;2024-03-06T08:57:42;2.20;99.90
26990;DHT22;14537;47.788;11.858;2024-03-06T09:00:09;2.20;99.90
26990;DHT22;14537;47.788;11.858;2024-03-06T09:02:37;2.20;99.90
26990;DHT22;14537;47.788;11.858;2024-03-06T09:05:07;2.30;99.90
26990;DHT22;14537;47.788;11.858;2024-03-06T09:07:38;2.20;99.90
26990;DHT22;14537;47.788;11.858;2024-03-06T09:10:09;2.20;99.90
26990;DHT22;14537;47.788;11.858;2024-03-06T09:12:35;2.20;99.90
26990;DHT22;14537;47.788;11.858;2024-03-06T09:15:02;2.30;99.90
26990;DHT22;14537;47.788;11.858;2024-03-06T09:17:28;2.30;99.90
26990;DHT22;14537;47.788;11.858;2024-03-06T09:19:54;2.30;99.90
26990;DHT22;14537;47.788;11.858;2024-03-06T09:22:19;2.40;99.90
26990;DHT22;14537;47.788;11.858;2024-03-06T09:24:45;2.40;99.90
26990;DHT22;14537;47.788;11.858;2024-03-06T09:27:12;2.30;99.90
26990;DHT22;14537;47.788;11.858;2024-03-06T09:29:39;2.40;99.90
26990;DHT22;14537;47.788;11.858;2024-03-06T09:32:05;2.30;99.90
26990;DHT22;14537;47.788;11.858;2024-03-06T09:34:31;2.40;99.90
26990;DHT22;14537;47.788;11.858;2024-03-06T09:36:56;2.50;99.90
26990;DHT22;14537;47.788;11.858;2024-03-06T09:39:22;2.40;99.90
26990;DHT22;14537;47.788;11.858;2024-03-06T09:41:51;2.40;99.90
26990;DHT22;14537;47.788;11.858;2024-03-06T09:44:17;2.40;99.90
26990;DHT22;14537;47.788;11.858;2024-03-06T09:46:47;2.40;99.90
26990;DHT22;14537;47.788;11.858;2024-03-06T09:49:15;2.50;99.90
26990;DHT22;14537;47.788;11.858;2024-03-06T09:51:45;2.50;99.90
26990;DHT22;14537;47.788;11.858;2024-03-06T09:54:12;2.50;99.90
26990;DHT22;14537;47.788;11.858;2024-03-06T09:56:41;2.50;99.90
26990;DHT22;14537;47.788;11.858;2024-03-06T09:59:08;2.40;99.90
26990;DHT22;14537;47.788;11.858;2024-03-06T10:01:38;2.50;99.90
26990;DHT22;14537;47.788;11.858;2024-03-06T10:04:22;2.40;99.90
26990;DHT22;14537;47.788;11.858;2024-03-06T10:06:49;2.40;99.90
26990;DHT22;14537;47.788;11.858;2024-03-06T10:09:19;2.50;99.90
26990;DHT22;14537;47.788;11.858;2024-03-06T10:11:45;2.50;99.90
26990;DHT22;14537;47.788;11.858;2024-03-06T10:14:11;2.50;99.90
26990;DHT22;14537;47.788;11.858;2024-03-06T10:16:37;2.50;99.90
26990;DHT22;14537;47.788;11.858;2024-03-06T10:19:16;2.60;99.90
26990;DHT22;14537;47.788;11.858;2024-03-06T10:21:47;2.60;99.90
26990;DHT22;14537;47.788;11.858;2024-03-06T10:24:27;2.80;99.90
26990;DHT22;14537;47.788;11.858;2024-03-06T10:26:55;2.80;99.90
26990;DHT22;14537;47.788;11.858;2024-03-06T10:29:24;2.70;99.90
26990;DHT22;14537;47.788;11.858;2024-03-06T10:31:54;2.80;99.90
26990;DHT22;14537;47.788;11.858;2024-03-06T10:34:26;2.80;99.90
26990;DHT22;14537;47.788;11.858;2024-03-06T10:36:58;2.80;99.90
26990;DHT22;14537;47.788;11.858;2024-03-06T10:39:24;2.70;99.90
26990;DHT22;14537;47.788;11.858;2024-03-06T10:41:54;2.70;99.90
26990;DHT22;14537;47.788;11.858;2024-03-06T10:44:24;2.80;99.90
26990;DHT22;14537;47.788;11.858;2024-03-06T10:47:05;2.80;99.90
26990;DHT22;14537;47.788;11.858;2024-03-06T10:49:32;2.60;99.90
26990;DHT22;14537;47.788;11.858;2024-03-06T10:52:04;2.70;99.90
26990;DHT22;14537;47.788;11.858;2024-03-06T10:54:32;2.70;99.90
26990;DHT22;14537;47.788;11.858;2024-03-06T10:57:00;2.80;99.90
26990;DHT22;14537;47.788;11.858;2024-03-06T10:59:27;2.80;99.90
26990;DHT22;14537;47.788;11.858;2024-03-06T11:01:56;2.60;99.90
26990;DHT22;14537;47.788;11.858;2024-03-06T11:04:26;2.80;99.90
26990;DHT22;14537;47.788;11.858;2024-03-06T11:06:55;2.80;99.90
26990;DHT22;14537;47.788;11.858;2024-03-06T11:09:20;3.00;99.90
26990;DHT22;14537;47.788;11.858;2024-03-06T11:11:51;3.00;99.90
26990;DHT22;14537;47.788;11.858;2024-03-06T11:14:17;2.90;99.90
26990;DHT22;14537;47.788;11.858;2024-03-06T11:17:16;2.90;99.90
26990;DHT22;14537;47.788;11.858;2024-03-06T11:28:16;2.90;99.90
26990;DHT22;14537;47.788;11.858;2024-03-06T11:30:51;2.80;99.90
26990;DHT22;14537;47.788;11.858;2024-03-06T11:33:20;2.80;99.90
26990;DHT22;14537;47.788;11.858;2024-03-06T11:36:24;2.80;99.90
26990;DHT22;14537;47.788;11.858;2024-03-06T11:39:06;2.90;99.90
26990;DHT22;14537;47.788;11.858;2024-03-06T11:44:01;3.00;99.90
26990;DHT22;14537;47.788;11.858;2024-03-06T11:49:19;2.90;99.90
26990;DHT22;14537;47.788;11.858;2024-03-06T11:51:46;2.90;99.90
26990;DHT22;14537;47.788;11.858;2024-03-06T11:54:13;2.70;99.90
26990;DHT22;14537;47.788;11.858;2024-03-06T11:56:40;2.70;99.90
26990;DHT22;14537;47.788;11.858;2024-03-06T11:59:06;2.60;99.90
26990;DHT22;14537;47.788;11.858;2024-03-06T12:01:42;2.70;99.90
26990;DHT22;14537;47.788;11.858;2024-03-06T12:04:07;2.80;99.90
26990;DHT22;14537;47.788;11.858;2024-03-06T12:06:33;2.70;99.90
26990;DHT22;14537;47.788;11.858;2024-03-06T12:08:59;2.70;99.90
26990;DHT22;14537;47.788;11.858;2024-03-06T12:11:25;2.80;99.90
26990;DHT22;14537;47.788;11.858;2024-03-06T12:13:51;2.80;99.90
26990;DHT22;14537;47.788;11.858;2024-03-06T12:16:17;2.70;99.90
26990;DHT22;14537;47.788;11.858;2024-03-06T12:18:43;2.60;99.90
26990;DHT22;14537;47.788;11.858;2024-03-06T12:21:10;2.70;99.90
26990;DHT22;14537;47.788;11.858;2024-03-06T12:23:36;2.60;99.90
26990;DHT22;14537;47.788;11.858;2024-03-06T12:26:09;2.70;99.90
26990;DHT22;14537;47.788;11.858;2024-03-06T12:28:37;2.80;99.90
26990;DHT22;14537;47.788;11.858;2024-03-06T12:31:03;2.70;99.90
26990;DHT22;14537;47.788;11.858;2024-03-06T12:33:29;2.80;99.90
26990;DHT22;14537;47.788;11.858;2024-03-06T12:36:06;2.90;99.90
26990;DHT22;14537;47.788;11.858;2024-03-06T12:38:36;2.80;99.90
26990;DHT22;14537;47.788;11.858;2024-03-06T12:41:02;2.80;99.90
26990;DHT22;14537;47.788;11.858;2024-03-06T12:43:28;2.60;99.90
26990;DHT22;14537;47.788;11.858;2024-03-06T12:45:54;2.50;99.90
26990;DHT22;14537;47.788;11.858;2024-03-06T12:48:21;2.50;99.90
26990;DHT22;14537;47.788;11.858;2024-03-06T12:50:47;2.60;99.90
26990;DHT22;14537;47.788;11.858;2024-03-06T12:53:18;2.60;99.90
26990;DHT22;14537;47.788;11.858;2024-03-06T12:55:44;2.70;99.90
26990;DHT22;14537;47.788;11.858;2024-03-06T12:58:12;2.90;99.90
26990;DHT22;14537;47.788;11.858;2024-03-06T13:00:37;2.90;99.90
26990;DHT22;14537;47.788;11.858;2024-03-06T13:03:03;2.90;99.90
26990;DHT22;14537;47.788;11.858;2024-03-06T13:05:29;2.70;99.90
26990;DHT22;14537;47.788;11.858;2024-03-06T13:07:54;2.50;99.90
26990;DHT22;14537;47.788;11.858;2024-03-06T13:10:20;2.50;99.90
26990;DHT22;14537;47.788;11.858;2024-03-06T13:12:47;2.40;99.90
26990;DHT22;14537;47.788;11.858;2024-03-06T13:15:13;2.40;99.90
26990;DHT22;14537;47.788;11.858;2024-03-06T13:17:38;2.40;99.90
26990;DHT22;14537;47.788;11.858;2024-03-06T13:20:06;2.40;99.90
26990;DHT22;14537;47.788;11.858;2024-03-06T13:22:35;2.40;99.90
26990;DHT22;14537;47.788;11.858;2024-03-06T13:25:00;2.60;99.90
26990;DHT22;14537;47.788;11.858;2024-03-06T13:27:26;2.60;99.90
26990;DHT22;14537;47.788;11.858;2024-03-06T13:29:53;2.60;99.90
26990;DHT22;14537;47.788;11.858;2024-03-06T13:32:18;2.50;99.90
26990;DHT22;14537;47.788;11.858;2024-03-06T13:34:44;2.60;99.90
26990;DHT22;14537;47.788;11.858;2024-03-06T13:37:10;2.60;99.90
26990;DHT22;14537;47.788;11.858;2024-03-06T13:39:36;2.70;99.90
26990;DHT22;14537;47.788;11.858;2024-03-06T13:42:02;2.80;99.90
26990;DHT22;14537;47.788;11.858;2024-03-06T13:44:27;2.80;99.90
26990;DHT22;14537;47.788;11.858;2024-03-06T13:46:53;2.80;99.90
26990;DHT22;14537;47.788;11.858;2024-03-06T13:52:01;2.60;99.90
26990;DHT22;14537;47.788;11.858;2024-03-06T13:54:26;2.60;99.90
26990;DHT22;14537;47.788;11.858;2024-03-06T13:56:52;2.60;99.90
26990;DHT22;14537;47.788;11.858;2024-03-06T13:59:21;2.70;99.90
26990;DHT22;14537;47.788;11.858;2024-03-06T14:01:46;2.80;99.90
26990;DHT22;14537;47.788;11.858;2024-03-06T14:04:14;2.70;99.90
26990;DHT22;14537;47.788;11.858;2024-03-06T14:06:40;2.70;99.90
26990;DHT22;14537;47.788;11.858;2024-03-06T14:09:05;2.70;99.90
26990;DHT22;14537;47.788;11.858;2024-03-06T14:11:33;2.60;99.90
26990;DHT22;14537;47.788;11.858;2024-03-06T14:14:00;2.70;99.90
26990;DHT22;14537;47.788;11.858;2024-03-06T14:16:26;2.60;99.90
26990;DHT22;14537;47.788;11.858;2024-03-06T14:18:52;2.60;99.90
26990;DHT22;14537;47.788;11.858;2024-03-06T14:21:19;2.50;99.90
26990;DHT22;14537;47.788;11.858;2024-03-06T14:23:44;2.40;99.90
26990;DHT22;14537;47.788;11.858;2024-03-06T14:26:10;2.40;99.90
26990;DHT22;14537;47.788;11.858;2024-03-06T14:28:36;2.40;99.90
26990;DHT22;14537;47.788;11.858;2024-03-06T14:31:03;2.50;99.90
26990;DHT22;14537;47.788;11.858;2024-03-06T14:33:29;2.50;99.90
26990;DHT22;14537;47.788;11.858;2024-03-06T14:35:55;2.40;99.90
26990;DHT22;14537;47.788;11.858;2024-03-06T14:38:20;2.30;99.90
26990;DHT22;14537;47.788;11.858;2024-03-06T14:40:46;2.30;99.90
26990;DHT22;14537;47.788;11.858;2024-03-06T14:43:12;2.20;99.90
26990;DHT22;14537;47.788;11.858;2024-03-06T14:45:38;2.30;99.90
26990;DHT22;14537;47.788;11.858;2024-03-06T14:48:08;2.20;99.90
26990;DHT22;14537;47.788;11.858;2024-03-06T14:50:33;2.20;99.90
26990;DHT22;14537;47.788;11.858;2024-03-06T14:52:59;2.30;99.90
26990;DHT22;14537;47.788;11.858;2024-03-06T14:55:24;2.30;99.90
26990;DHT22;14537;47.788;11.858;2024-03-06T14:57:50;2.30;99.90
26990;DHT22;14537;47.788;11.858;2024-03-06T15:00:16;2.30;99.90
26990;DHT22;14537;47.788;11.858;2024-03-06T15:02:46;2.30;99.90
26990;DHT22;14537;47.788;11.858;2024-03-06T15:05:12;2.40;99.90
26990;DHT22;14537;47.788;11.858;2024-03-06T15:07:38;2.40;99.90
26990;DHT22;14537;47.788;11.858;2024-03-06T15:10:05;2.30;99.90
26990;DHT22;14537;47.788;11.858;2024-03-06T15:12:31;2.30;99.90
26990;DHT22;14537;47.788;11.858;2024-03-06T15:14:57;2.30;99.90
26990;DHT22;14537;47.788;11.858;2024-03-06T15:17:24;2.20;99.90
26990;DHT22;14537;47.788;11.858;2024-03-06T15:19:51;2.30;99.90
26990;DHT22;14537;47.788;11.858;2024-03-06T15:22:17;2.30;99.90
26990;DHT22;14537;47.788;11.858;2024-03-06T15:24:42;2.30;99.90
26990;DHT22;14537;47.788;11.858;2024-03-06T15:27:10;2.30;99.90
26990;DHT22;14537;47.788;11.858;2024-03-06T15:29:37;2.30;99.90
26990;DHT22;14537;47.788;11.858;2024-03-06T15:32:03;2.40;99.90
26990;DHT22;14537;47.788;11.858;2024-03-06T15:34:29;2.40;99.90
26990;DHT22;14537;47.788;11.858;2024-03-06T15:36:55;2.40;99.90
26990;DHT22;14537;47.788;11.858;2024-03-06T15:39:20;2.40;99.90
26990;DHT22;14537;47.788;11.858;2024-03-06T15:41:47;2.40;99.90
26990;DHT22;14537;47.788;11.858;2024-03-06T15:44:12;2.40;99.90